sensor_id;sensor_type;location;lat;lon;timestamp;P1;durP1;ratioP1;P2;durP2;ratioP2
11604;SDS011;5858;43.076;25.626;2023-09-08T00:01:18;10.38;;;5.00;;
11604;SDS011;5858;43.076;25.626;2023-09-08T00:03:45;6.32;;;4.15;;
11604;SDS011;5858;43.076;25.626;2023-09-08T00:06:15;8.95;;;4.47;;
11604;SDS011;5858;43.076;25.626;2023-09-08T00:08:45;10.35;;;4.30;;
11604;SDS011;5858;43.076;25.626;2023-09-08T00:11:13;6.60;;;4.18;;
11604;SDS011;5858;43.076;25.626;2023-09-08T00:13:40;7.13;;;4.18;;
11604;SDS011;5858;43.076;25.626;2023-09-08T00:16:07;7.32;;;4.55;;
11604;SDS011;5858;43.076;25.626;2023-09-08T00:18:36;5.90;;;3.53;;
11604;SDS011;5858;43.076;25.626;2023-09-08T00:21:03;8.45;;;4.43;;
11604;SDS011;5858;43.076;25.626;2023-09-08T00:23:30;8.05;;;4.78;;
11604;SDS011;5858;43.076;25.626;2023-09-08T00:25:59;8.20;;;4.68;;
11604;SDS011;5858;43.076;25.626;2023-09-08T00:28:29;8.05;;;4.75;;
11604;SDS011;5858;43.076;25.626;2023-09-08T00:30:56;6.55;;;4.18;;
11604;SDS011;5858;43.076;25.626;2023-09-08T00:33:25;6.30;;;4.68;;
11604;SDS011;5858;43.076;25.626;2023-09-08T00:35:53;6.25;;;4.38;;
11604;SDS011;5858;43.076;25.626;2023-09-08T00:38:23;7.85;;;4.43;;
11604;SDS011;5858;43.076;25.626;2023-09-08T00:41:00;8.93;;;4.40;;
11604;SDS011;5858;43.076;25.626;2023-09-08T00:43:54;5.75;;;3.95;;
11604;SDS011;5858;43.076;25.626;2023-09-08T00:46:21;10.13;;;4.32;;
11604;SDS011;5858;43.076;25.626;2023-09-08T00:48:52;11.73;;;4.05;;
11604;SDS011;5858;43.076;25.626;2023-09-08T00:51:21;4.60;;;3.80;;
11604;SDS011;5858;43.076;25.626;2023-09-08T00:53:49;5.35;;;3.97;;
11604;SDS011;5858;43.076;25.626;2023-09-08T00:56:16;8.05;;;4.20;;
11604;SDS011;5858;43.076;25.626;2023-09-08T00:58:44;6.43;;;4.22;;
11604;SDS011;5858;43.076;25.626;2023-09-08T01:01:11;8.40;;;3.65;;
11604;SDS011;5858;43.076;25.626;2023-09-08T01:03:38;6.45;;;4.20;;
11604;SDS011;5858;43.076;25.626;2023-09-08T01:06:05;4.82;;;3.55;;
11604;SDS011;5858;43.076;25.626;2023-09-08T01:08:34;3.97;;;3.53;;
11604;SDS011;5858;43.076;25.626;2023-09-08T01:11:05;3.97;;;3.63;;
11604;SDS011;5858;43.076;25.626;2023-09-08T01:13:33;7.20;;;4.72;;
11604;SDS011;5858;43.076;25.626;2023-09-08T01:16:00;6.28;;;4.07;;
11604;SDS011;5858;43.076;25.626;2023-09-08T01:18:28;5.25;;;4.07;;
11604;SDS011;5858;43.076;25.626;2023-09-08T01:21:04;5.82;;;3.65;;
11604;SDS011;5858;43.076;25.626;2023-09-08T01:23:47;7.78;;;3.92;;
11604;SDS011;5858;43.076;25.626;2023-09-08T01:26:40;6.05;;;4.00;;
11604;SDS011;5858;43.076;25.626;2023-09-08T01:29:08;6.72;;;4.20;;
11604;SDS011;5858;43.076;25.626;2023-09-08T01:31:36;5.82;;;3.90;;
11604;SDS011;5858;43.076;25.626;2023-09-08T01:34:07;4.78;;;3.78;;
11604;SDS011;5858;43.076;25.626;2023-09-08T01:36:35;6.28;;;4.30;;
11604;SDS011;5858;43.076;25.626;2023-09-08T01:39:02;6.68;;;4.32;;
11604;SDS011;5858;43.076;25.626;2023-09-08T01:41:29;7.68;;;4.78;;
11604;SDS011;5858;43.076;25.626;2023-09-08T01:43:59;7.13;;;3.90;;
11604;SDS011;5858;43.076;25.626;2023-09-08T01:46:30;10.68;;;4.22;;
11604;SDS011;5858;43.076;25.626;2023-09-08T01:48:57;7.55;;;4.60;;
11604;SDS011;5858;43.076;25.626;2023-09-08T01:51:24;6.68;;;4.50;;
11604;SDS011;5858;43.076;25.626;2023-09-08T01:53:51;5.32;;;4.47;;
11604;SDS011;5858;43.076;25.626;2023-09-08T01:56:20;5.65;;;4.38;;
11604;SDS011;5858;43.076;25.626;2023-09-08T02:01:45;5.55;;;4.15;;
11604;SDS011;5858;43.076;25.626;2023-09-08T02:04:12;6.45;;;4.57;;
11604;SDS011;5858;43.076;25.626;2023-09-08T02:06:39;7.25;;;4.70;;
11604;SDS011;5858;43.076;25.626;2023-09-08T02:09:07;8.30;;;4.15;;
11604;SDS011;5858;43.076;25.626;2023-09-08T02:11:39;5.97;;;4.13;;
11604;SDS011;5858;43.076;25.626;2023-09-08T02:14:07;6.35;;;4.43;;
11604;SDS011;5858;43.076;25.626;2023-09-08T02:16:38;8.20;;;4.50;;
11604;SDS011;5858;43.076;25.626;2023-09-08T02:19:05;7.30;;;4.53;;
11604;SDS011;5858;43.076;25.626;2023-09-08T02:21:32;9.10;;;4.68;;
11604;SDS011;5858;43.076;25.626;2023-09-08T02:24:00;18.10;;;5.43;;
11604;SDS011;5858;43.076;25.626;2023-09-08T02:26:26;9.23;;;4.68;;
11604;SDS011;5858;43.076;25.626;2023-09-08T02:28:54;5.63;;;4.57;;
11604;SDS011;5858;43.076;25.626;2023-09-08T02:31:24;8.55;;;4.78;;
11604;SDS011;5858;43.076;25.626;2023-09-08T02:33:53;5.85;;;4.90;;
11604;SDS011;5858;43.076;25.626;2023-09-08T02:36:21;8.00;;;4.53;;
11604;SDS011;5858;43.076;25.626;2023-09-08T02:38:53;7.22;;;4.10;;
11604;SDS011;5858;43.076;25.626;2023-09-08T02:41:22;5.40;;;4.68;;
11604;SDS011;5858;43.076;25.626;2023-09-08T02:43:50;7.72;;;5.03;;
11604;SDS011;5858;43.076;25.626;2023-09-08T02:46:17;11.75;;;5.28;;
11604;SDS011;5858;43.076;25.626;2023-09-08T02:48:44;7.25;;;4.97;;
11604;SDS011;5858;43.076;25.626;2023-09-08T02:51:13;8.30;;;5.05;;
11604;SDS011;5858;43.076;25.626;2023-09-08T02:53:40;8.95;;;5.15;;
11604;SDS011;5858;43.076;25.626;2023-09-08T02:56:08;13.15;;;5.40;;
11604;SDS011;5858;43.076;25.626;2023-09-08T02:58:35;7.00;;;4.70;;
11604;SDS011;5858;43.076;25.626;2023-09-08T03:01:14;7.35;;;4.80;;
11604;SDS011;5858;43.076;25.626;2023-09-08T03:03:45;10.40;;;4.85;;
11604;SDS011;5858;43.076;25.626;2023-09-08T03:06:15;5.63;;;4.82;;
11604;SDS011;5858;43.076;25.626;2023-09-08T03:08:44;7.95;;;4.80;;
11604;SDS011;5858;43.076;25.626;2023-09-08T03:11:12;7.43;;;4.93;;
11604;SDS011;5858;43.076;25.626;2023-09-08T03:13:39;7.32;;;4.88;;
11604;SDS011;5858;43.076;25.626;2023-09-08T03:16:06;5.55;;;4.55;;
11604;SDS011;5858;43.076;25.626;2023-09-08T03:18:36;6.13;;;5.10;;
11604;SDS011;5858;43.076;25.626;2023-09-08T03:21:04;12.40;;;5.05;;
11604;SDS011;5858;43.076;25.626;2023-09-08T03:23:37;7.35;;;4.97;;
11604;SDS011;5858;43.076;25.626;2023-09-08T03:26:05;6.32;;;5.10;;
11604;SDS011;5858;43.076;25.626;2023-09-08T03:28:32;7.57;;;4.82;;
11604;SDS011;5858;43.076;25.626;2023-09-08T03:31:04;6.10;;;5.18;;
11604;SDS011;5858;43.076;25.626;2023-09-08T03:33:32;10.70;;;5.25;;
11604;SDS011;5858;43.076;25.626;2023-09-08T03:36:05;8.95;;;5.22;;
11604;SDS011;5858;43.076;25.626;2023-09-08T03:38:33;10.23;;;5.15;;
11604;SDS011;5858;43.076;25.626;2023-09-08T03:41:04;8.00;;;5.10;;
11604;SDS011;5858;43.076;25.626;2023-09-08T03:43:36;7.25;;;5.80;;
11604;SDS011;5858;43.076;25.626;2023-09-08T03:46:08;12.43;;;5.70;;
11604;SDS011;5858;43.076;25.626;2023-09-08T03:48:35;9.40;;;5.00;;
11604;SDS011;5858;43.076;25.626;2023-09-08T03:51:02;10.88;;;5.75;;
11604;SDS011;5858;43.076;25.626;2023-09-08T03:53:30;8.30;;;5.10;;
11604;SDS011;5858;43.076;25.626;2023-09-08T03:55:59;10.38;;;4.65;;
11604;SDS011;5858;43.076;25.626;2023-09-08T03:58:31;9.38;;;4.97;;
11604;SDS011;5858;43.076;25.626;2023-09-08T04:00:58;9.47;;;5.67;;
11604;SDS011;5858;43.076;25.626;2023-09-08T04:03:30;7.47;;;4.95;;
11604;SDS011;5858;43.076;25.626;2023-09-08T04:08:12;11.50;;;5.22;;
11604;SDS011;5858;43.076;25.626;2023-09-08T04:09:28;7.10;;;5.25;;
11604;SDS011;5858;43.076;25.626;2023-09-08T04:16:26;8.82;;;4.72;;
11604;SDS011;5858;43.076;25.626;2023-09-08T04:19:12;6.68;;;4.55;;
11604;SDS011;5858;43.076;25.626;2023-09-08T04:21:47;6.15;;;4.93;;
11604;SDS011;5858;43.076;25.626;2023-09-08T04:24:15;6.95;;;4.53;;
11604;SDS011;5858;43.076;25.626;2023-09-08T04:26:42;5.80;;;4.63;;
11604;SDS011;5858;43.076;25.626;2023-09-08T04:29:09;8.10;;;4.53;;
11604;SDS011;5858;43.076;25.626;2023-09-08T04:31:38;9.63;;;4.68;;
11604;SDS011;5858;43.076;25.626;2023-09-08T04:34:11;6.03;;;4.63;;
11604;SDS011;5858;43.076;25.626;2023-09-08T04:36:40;8.60;;;5.05;;
11604;SDS011;5858;43.076;25.626;2023-09-08T04:39:10;9.98;;;5.35;;
11604;SDS011;5858;43.076;25.626;2023-09-08T04:41:39;10.88;;;4.80;;
11604;SDS011;5858;43.076;25.626;2023-09-08T04:44:05;7.55;;;4.47;;
11604;SDS011;5858;43.076;25.626;2023-09-08T04:46:33;10.77;;;4.82;;
11604;SDS011;5858;43.076;25.626;2023-09-08T04:49:02;9.45;;;5.18;;
11604;SDS011;5858;43.076;25.626;2023-09-08T04:51:32;15.07;;;5.85;;
11604;SDS011;5858;43.076;25.626;2023-09-08T04:53:58;10.20;;;4.93;;
11604;SDS011;5858;43.076;25.626;2023-09-08T04:56:25;5.13;;;4.63;;
11604;SDS011;5858;43.076;25.626;2023-09-08T04:58:52;7.70;;;5.38;;
11604;SDS011;5858;43.076;25.626;2023-09-08T05:01:20;10.82;;;5.00;;
11604;SDS011;5858;43.076;25.626;2023-09-08T05:03:47;7.90;;;5.32;;
11604;SDS011;5858;43.076;25.626;2023-09-08T05:06:15;10.68;;;4.85;;
11604;SDS011;5858;43.076;25.626;2023-09-08T05:08:42;7.32;;;4.60;;
11604;SDS011;5858;43.076;25.626;2023-09-08T05:11:09;6.10;;;4.47;;
11604;SDS011;5858;43.076;25.626;2023-09-08T05:13:36;7.28;;;5.15;;
11604;SDS011;5858;43.076;25.626;2023-09-08T05:16:03;6.22;;;4.80;;
11604;SDS011;5858;43.076;25.626;2023-09-08T05:18:38;10.80;;;4.95;;
11604;SDS011;5858;43.076;25.626;2023-09-08T05:21:05;8.38;;;5.15;;
11604;SDS011;5858;43.076;25.626;2023-09-08T05:23:34;5.60;;;4.60;;
11604;SDS011;5858;43.076;25.626;2023-09-08T05:26:01;8.75;;;5.13;;
11604;SDS011;5858;43.076;25.626;2023-09-08T05:28:28;5.88;;;4.97;;
11604;SDS011;5858;43.076;25.626;2023-09-08T05:30:55;9.38;;;5.57;;
11604;SDS011;5858;43.076;25.626;2023-09-08T05:33:22;9.85;;;5.63;;
11604;SDS011;5858;43.076;25.626;2023-09-08T05:35:53;6.68;;;4.32;;
11604;SDS011;5858;43.076;25.626;2023-09-08T05:38:20;6.72;;;5.07;;
11604;SDS011;5858;43.076;25.626;2023-09-08T05:40:49;7.45;;;4.82;;
11604;SDS011;5858;43.076;25.626;2023-09-08T05:43:16;7.25;;;4.55;;
11604;SDS011;5858;43.076;25.626;2023-09-08T05:45:43;9.20;;;6.38;;
11604;SDS011;5858;43.076;25.626;2023-09-08T05:48:10;9.82;;;5.35;;
11604;SDS011;5858;43.076;25.626;2023-09-08T05:50:37;7.45;;;4.78;;
11604;SDS011;5858;43.076;25.626;2023-09-08T05:53:05;8.95;;;5.10;;
11604;SDS011;5858;43.076;25.626;2023-09-08T05:55:32;7.05;;;5.30;;
11604;SDS011;5858;43.076;25.626;2023-09-08T05:58:00;7.15;;;5.20;;
11604;SDS011;5858;43.076;25.626;2023-09-08T06:00:27;9.57;;;5.53;;
11604;SDS011;5858;43.076;25.626;2023-09-08T06:02:54;14.65;;;5.65;;
11604;SDS011;5858;43.076;25.626;2023-09-08T06:05:22;7.78;;;5.55;;
11604;SDS011;5858;43.076;25.626;2023-09-08T06:07:49;14.23;;;5.65;;
11604;SDS011;5858;43.076;25.626;2023-09-08T06:10:16;7.45;;;5.10;;
11604;SDS011;5858;43.076;25.626;2023-09-08T06:12:43;5.97;;;4.57;;
11604;SDS011;5858;43.076;25.626;2023-09-08T06:15:11;15.88;;;5.38;;
11604;SDS011;5858;43.076;25.626;2023-09-08T06:17:38;13.82;;;5.07;;
11604;SDS011;5858;43.076;25.626;2023-09-08T06:20:05;11.45;;;5.15;;
11604;SDS011;5858;43.076;25.626;2023-09-08T06:22:33;7.25;;;5.38;;
11604;SDS011;5858;43.076;25.626;2023-09-08T06:25:17;7.35;;;5.32;;
11604;SDS011;5858;43.076;25.626;2023-09-08T06:27:50;8.43;;;4.60;;
11604;SDS011;5858;43.076;25.626;2023-09-08T06:30:24;6.45;;;4.43;;
11604;SDS011;5858;43.076;25.626;2023-09-08T06:33:00;6.78;;;4.40;;
11604;SDS011;5858;43.076;25.626;2023-09-08T06:35:36;6.55;;;4.18;;
11604;SDS011;5858;43.076;25.626;2023-09-08T06:38:03;6.28;;;3.97;;
11604;SDS011;5858;43.076;25.626;2023-09-08T06:40:30;6.57;;;4.03;;
11604;SDS011;5858;43.076;25.626;2023-09-08T06:42:57;5.95;;;3.97;;
11604;SDS011;5858;43.076;25.626;2023-09-08T06:45:25;5.85;;;3.78;;
11604;SDS011;5858;43.076;25.626;2023-09-08T06:47:52;5.65;;;3.97;;
11604;SDS011;5858;43.076;25.626;2023-09-08T06:50:20;8.50;;;3.92;;
11604;SDS011;5858;43.076;25.626;2023-09-08T06:52:50;4.90;;;3.97;;
11604;SDS011;5858;43.076;25.626;2023-09-08T06:55:19;5.25;;;3.58;;
11604;SDS011;5858;43.076;25.626;2023-09-08T06:57:48;5.63;;;3.47;;
11604;SDS011;5858;43.076;25.626;2023-09-08T07:00:16;7.43;;;3.95;;
11604;SDS011;5858;43.076;25.626;2023-09-08T07:02:47;5.82;;;4.03;;
11604;SDS011;5858;43.076;25.626;2023-09-08T07:05:15;7.95;;;4.10;;
11604;SDS011;5858;43.076;25.626;2023-09-08T07:07:48;6.63;;;3.80;;
11604;SDS011;5858;43.076;25.626;2023-09-08T07:10:22;7.57;;;3.95;;
11604;SDS011;5858;43.076;25.626;2023-09-08T07:12:49;7.00;;;4.07;;
11604;SDS011;5858;43.076;25.626;2023-09-08T07:15:16;6.05;;;3.75;;
11604;SDS011;5858;43.076;25.626;2023-09-08T07:17:43;9.30;;;4.20;;
11604;SDS011;5858;43.076;25.626;2023-09-08T07:20:12;5.32;;;4.38;;
11604;SDS011;5858;43.076;25.626;2023-09-08T07:22:39;9.90;;;4.30;;
11604;SDS011;5858;43.076;25.626;2023-09-08T07:25:06;6.82;;;4.13;;
11604;SDS011;5858;43.076;25.626;2023-09-08T07:27:34;4.35;;;3.95;;
11604;SDS011;5858;43.076;25.626;2023-09-08T07:30:01;5.57;;;4.05;;
11604;SDS011;5858;43.076;25.626;2023-09-08T07:32:29;5.90;;;4.28;;
11604;SDS011;5858;43.076;25.626;2023-09-08T07:34:56;5.30;;;4.10;;
11604;SDS011;5858;43.076;25.626;2023-09-08T07:37:27;5.07;;;4.00;;
11604;SDS011;5858;43.076;25.626;2023-09-08T07:39:54;8.50;;;4.43;;
11604;SDS011;5858;43.076;25.626;2023-09-08T07:42:24;6.63;;;4.25;;
11604;SDS011;5858;43.076;25.626;2023-09-08T07:45:00;8.85;;;4.45;;
11604;SDS011;5858;43.076;25.626;2023-09-08T07:47:27;7.70;;;4.60;;
11604;SDS011;5858;43.076;25.626;2023-09-08T07:50:15;8.20;;;4.35;;
11604;SDS011;5858;43.076;25.626;2023-09-08T07:52:47;6.10;;;4.15;;
11604;SDS011;5858;43.076;25.626;2023-09-08T07:55:14;6.90;;;3.65;;
11604;SDS011;5858;43.076;25.626;2023-09-08T07:57:46;6.60;;;3.92;;
11604;SDS011;5858;43.076;25.626;2023-09-08T08:00:13;8.35;;;4.45;;
11604;SDS011;5858;43.076;25.626;2023-09-08T08:02:42;4.72;;;3.88;;
11604;SDS011;5858;43.076;25.626;2023-09-08T08:05:10;4.68;;;4.10;;
11604;SDS011;5858;43.076;25.626;2023-09-08T08:07:37;6.90;;;4.05;;
11604;SDS011;5858;43.076;25.626;2023-09-08T08:10:07;7.00;;;4.63;;
11604;SDS011;5858;43.076;25.626;2023-09-08T08:12:37;6.50;;;3.88;;
11604;SDS011;5858;43.076;25.626;2023-09-08T08:15:05;9.63;;;4.20;;
11604;SDS011;5858;43.076;25.626;2023-09-08T08:17:36;5.72;;;3.92;;
11604;SDS011;5858;43.076;25.626;2023-09-08T08:20:06;6.80;;;3.88;;
11604;SDS011;5858;43.076;25.626;2023-09-08T08:22:35;6.20;;;4.13;;
11604;SDS011;5858;43.076;25.626;2023-09-08T08:25:02;4.85;;;4.00;;
11604;SDS011;5858;43.076;25.626;2023-09-08T08:27:31;6.22;;;4.35;;
11604;SDS011;5858;43.076;25.626;2023-09-08T08:30:01;5.93;;;3.85;;
11604;SDS011;5858;43.076;25.626;2023-09-08T08:32:28;4.38;;;3.60;;
11604;SDS011;5858;43.076;25.626;2023-09-08T08:34:56;5.75;;;3.50;;
11604;SDS011;5858;43.076;25.626;2023-09-08T08:37:23;7.05;;;4.15;;
11604;SDS011;5858;43.076;25.626;2023-09-08T08:39:58;6.03;;;4.05;;
11604;SDS011;5858;43.076;25.626;2023-09-08T08:42:37;5.00;;;3.80;;
11604;SDS011;5858;43.076;25.626;2023-09-08T08:45:05;10.15;;;4.20;;
11604;SDS011;5858;43.076;25.626;2023-09-08T08:47:34;7.45;;;4.00;;
11604;SDS011;5858;43.076;25.626;2023-09-08T08:50:01;4.40;;;3.38;;
11604;SDS011;5858;43.076;25.626;2023-09-08T08:52:36;6.60;;;3.53;;
11604;SDS011;5858;43.076;25.626;2023-09-08T08:55:05;5.45;;;4.18;;
11604;SDS011;5858;43.076;25.626;2023-09-08T08:57:43;5.70;;;4.10;;
11604;SDS011;5858;43.076;25.626;2023-09-08T09:00:13;6.38;;;4.22;;
11604;SDS011;5858;43.076;25.626;2023-09-08T09:02:43;8.20;;;4.20;;
11604;SDS011;5858;43.076;25.626;2023-09-08T09:05:17;6.30;;;3.50;;
11604;SDS011;5858;43.076;25.626;2023-09-08T09:07:45;5.15;;;3.70;;
11604;SDS011;5858;43.076;25.626;2023-09-08T09:10:12;4.30;;;3.35;;
11604;SDS011;5858;43.076;25.626;2023-09-08T09:12:43;5.88;;;3.78;;
11604;SDS011;5858;43.076;25.626;2023-09-08T09:15:10;7.47;;;3.33;;
11604;SDS011;5858;43.076;25.626;2023-09-08T09:17:41;4.30;;;3.30;;
11604;SDS011;5858;43.076;25.626;2023-09-08T09:20:18;3.85;;;3.45;;
11604;SDS011;5858;43.076;25.626;2023-09-08T09:22:50;4.13;;;2.92;;
11604;SDS011;5858;43.076;25.626;2023-09-08T09:25:22;4.97;;;3.38;;
11604;SDS011;5858;43.076;25.626;2023-09-08T09:27:53;5.38;;;3.55;;
11604;SDS011;5858;43.076;25.626;2023-09-08T09:30:20;5.25;;;3.42;;
11604;SDS011;5858;43.076;25.626;2023-09-08T09:32:50;6.72;;;4.18;;
11604;SDS011;5858;43.076;25.626;2023-09-08T09:35:38;12.50;;;4.15;;
11604;SDS011;5858;43.076;25.626;2023-09-08T09:38:06;5.50;;;3.90;;
11604;SDS011;5858;43.076;25.626;2023-09-08T09:40:33;4.07;;;3.67;;
11604;SDS011;5858;43.076;25.626;2023-09-08T09:43:04;5.15;;;3.40;;
11604;SDS011;5858;43.076;25.626;2023-09-08T09:45:32;6.70;;;3.72;;
11604;SDS011;5858;43.076;25.626;2023-09-08T09:48:03;7.22;;;4.20;;
11604;SDS011;5858;43.076;25.626;2023-09-08T09:50:32;3.65;;;3.25;;
11604;SDS011;5858;43.076;25.626;2023-09-08T09:53:09;6.13;;;3.53;;
11604;SDS011;5858;43.076;25.626;2023-09-08T09:55:57;4.55;;;3.28;;
11604;SDS011;5858;43.076;25.626;2023-09-08T10:02:24;5.55;;;3.65;;
11604;SDS011;5858;43.076;25.626;2023-09-08T10:04:57;5.90;;;3.20;;
11604;SDS011;5858;43.076;25.626;2023-09-08T10:07:40;5.25;;;3.63;;
11604;SDS011;5858;43.076;25.626;2023-09-08T10:10:13;4.78;;;3.45;;
11604;SDS011;5858;43.076;25.626;2023-09-08T10:12:44;4.55;;;3.70;;
11604;SDS011;5858;43.076;25.626;2023-09-08T10:15:13;5.28;;;3.45;;
11604;SDS011;5858;43.076;25.626;2023-09-08T10:17:48;5.90;;;3.80;;
11604;SDS011;5858;43.076;25.626;2023-09-08T10:20:23;5.25;;;3.40;;
11604;SDS011;5858;43.076;25.626;2023-09-08T10:22:57;4.82;;;3.55;;
11604;SDS011;5858;43.076;25.626;2023-09-08T10:25:31;9.05;;;3.60;;
11604;SDS011;5858;43.076;25.626;2023-09-08T10:28:12;5.22;;;3.53;;
11604;SDS011;5858;43.076;25.626;2023-09-08T10:30:39;5.47;;;3.78;;
11604;SDS011;5858;43.076;25.626;2023-09-08T10:33:12;4.63;;;3.80;;
11604;SDS011;5858;43.076;25.626;2023-09-08T10:36:03;4.03;;;3.13;;
11604;SDS011;5858;43.076;25.626;2023-09-08T10:45:16;5.20;;;4.53;;
11604;SDS011;5858;43.076;25.626;2023-09-08T10:51:10;4.88;;;3.30;;
11604;SDS011;5858;43.076;25.626;2023-09-08T10:54:21;5.90;;;4.05;;
11604;SDS011;5858;43.076;25.626;2023-09-08T11:00:50;4.18;;;3.75;;
11604;SDS011;5858;43.076;25.626;2023-09-08T11:03:42;7.50;;;3.60;;
11604;SDS011;5858;43.076;25.626;2023-09-08T11:06:24;8.65;;;3.80;;
11604;SDS011;5858;43.076;25.626;2023-09-08T11:08:57;7.68;;;3.90;;
11604;SDS011;5858;43.076;25.626;2023-09-08T11:11:36;5.55;;;3.80;;
11604;SDS011;5858;43.076;25.626;2023-09-08T11:14:08;4.57;;;3.50;;
11604;SDS011;5858;43.076;25.626;2023-09-08T11:16:37;4.03;;;3.40;;
11604;SDS011;5858;43.076;25.626;2023-09-08T11:19:05;5.43;;;3.50;;
11604;SDS011;5858;43.076;25.626;2023-09-08T11:32:09;4.75;;;3.65;;
11604;SDS011;5858;43.076;25.626;2023-09-08T11:34:46;4.03;;;3.63;;
11604;SDS011;5858;43.076;25.626;2023-09-08T11:37:38;9.15;;;3.75;;
11604;SDS011;5858;43.076;25.626;2023-09-08T11:41:29;7.05;;;3.90;;
11604;SDS011;5858;43.076;25.626;2023-09-08T11:44:14;4.97;;;3.33;;
11604;SDS011;5858;43.076;25.626;2023-09-08T11:46:59;5.05;;;3.58;;
11604;SDS011;5858;43.076;25.626;2023-09-08T11:49:38;7.63;;;3.13;;
11604;SDS011;5858;43.076;25.626;2023-09-08T11:52:33;18.38;;;4.35;;
11604;SDS011;5858;43.076;25.626;2023-09-08T11:55:31;5.20;;;3.50;;
11604;SDS011;5858;43.076;25.626;2023-09-08T11:58:03;5.43;;;3.65;;
11604;SDS011;5858;43.076;25.626;2023-09-08T12:04:26;5.40;;;3.50;;
11604;SDS011;5858;43.076;25.626;2023-09-08T12:06:54;26.80;;;3.70;;
11604;SDS011;5858;43.076;25.626;2023-09-08T12:09:24;4.50;;;3.17;;
11604;SDS011;5858;43.076;25.626;2023-09-08T12:11:52;4.00;;;3.47;;
11604;SDS011;5858;43.076;25.626;2023-09-08T12:14:21;4.07;;;3.50;;
11604;SDS011;5858;43.076;25.626;2023-09-08T12:16:54;4.60;;;3.05;;
11604;SDS011;5858;43.076;25.626;2023-09-08T12:19:35;7.25;;;3.30;;
11604;SDS011;5858;43.076;25.626;2023-09-08T12:22:05;5.70;;;3.80;;
11604;SDS011;5858;43.076;25.626;2023-09-08T12:48:39;4.75;;;3.28;;
11604;SDS011;5858;43.076;25.626;2023-09-08T12:51:15;4.38;;;3.33;;
11604;SDS011;5858;43.076;25.626;2023-09-08T12:53:58;4.03;;;3.03;;
11604;SDS011;5858;43.076;25.626;2023-09-08T12:57:14;6.97;;;3.10;;
11604;SDS011;5858;43.076;25.626;2023-09-08T12:59:47;5.40;;;3.42;;
11604;SDS011;5858;43.076;25.626;2023-09-08T13:02:19;6.03;;;3.35;;
11604;SDS011;5858;43.076;25.626;2023-09-08T13:05:06;4.35;;;3.20;;
11604;SDS011;5858;43.076;25.626;2023-09-08T13:08:21;6.72;;;3.60;;
11604;SDS011;5858;43.076;25.626;2023-09-08T13:11:12;5.15;;;3.33;;
11604;SDS011;5858;43.076;25.626;2023-09-08T13:13:44;4.65;;;3.03;;
11604;SDS011;5858;43.076;25.626;2023-09-08T13:16:51;7.15;;;3.33;;
11604;SDS011;5858;43.076;25.626;2023-09-08T13:19:33;3.20;;;2.90;;
11604;SDS011;5858;43.076;25.626;2023-09-08T13:22:30;5.07;;;2.90;;
11604;SDS011;5858;43.076;25.626;2023-09-08T13:25:25;6.07;;;3.05;;
11604;SDS011;5858;43.076;25.626;2023-09-08T13:28:19;4.47;;;2.75;;
11604;SDS011;5858;43.076;25.626;2023-09-08T13:31:17;4.72;;;2.90;;
11604;SDS011;5858;43.076;25.626;2023-09-08T13:33:50;5.05;;;2.80;;
11604;SDS011;5858;43.076;25.626;2023-09-08T13:36:18;3.80;;;2.75;;
11604;SDS011;5858;43.076;25.626;2023-09-08T13:38:59;5.00;;;3.03;;
11604;SDS011;5858;43.076;25.626;2023-09-08T13:42:50;3.03;;;2.72;;
11604;SDS011;5858;43.076;25.626;2023-09-08T13:45:39;8.85;;;3.65;;
11604;SDS011;5858;43.076;25.626;2023-09-08T13:48:09;8.65;;;3.33;;
11604;SDS011;5858;43.076;25.626;2023-09-08T13:50:39;7.03;;;3.20;;
11604;SDS011;5858;43.076;25.626;2023-09-08T13:53:16;5.32;;;3.00;;
11604;SDS011;5858;43.076;25.626;2023-09-08T13:55:44;3.97;;;2.85;;
11604;SDS011;5858;43.076;25.626;2023-09-08T13:58:18;5.82;;;2.97;;
11604;SDS011;5858;43.076;25.626;2023-09-08T14:00:45;3.63;;;3.10;;
11604;SDS011;5858;43.076;25.626;2023-09-08T14:03:15;6.35;;;3.20;;
11604;SDS011;5858;43.076;25.626;2023-09-08T14:05:42;3.95;;;3.20;;
11604;SDS011;5858;43.076;25.626;2023-09-08T14:08:09;4.65;;;2.85;;
11604;SDS011;5858;43.076;25.626;2023-09-08T14:10:36;4.90;;;3.38;;
11604;SDS011;5858;43.076;25.626;2023-09-08T14:13:05;5.45;;;3.33;;
11604;SDS011;5858;43.076;25.626;2023-09-08T14:15:55;6.03;;;3.53;;
11604;SDS011;5858;43.076;25.626;2023-09-08T14:18:33;6.72;;;3.92;;
11604;SDS011;5858;43.076;25.626;2023-09-08T14:21:12;5.53;;;3.33;;
11604;SDS011;5858;43.076;25.626;2023-09-08T14:23:42;6.18;;;3.55;;
11604;SDS011;5858;43.076;25.626;2023-09-08T14:26:31;5.57;;;3.38;;
11604;SDS011;5858;43.076;25.626;2023-09-08T14:29:14;5.88;;;3.40;;
11604;SDS011;5858;43.076;25.626;2023-09-08T14:31:41;4.68;;;3.30;;
11604;SDS011;5858;43.076;25.626;2023-09-08T14:34:08;5.28;;;3.65;;
11604;SDS011;5858;43.076;25.626;2023-09-08T14:36:35;6.70;;;3.28;;
11604;SDS011;5858;43.076;25.626;2023-09-08T14:39:02;5.00;;;3.22;;
11604;SDS011;5858;43.076;25.626;2023-09-08T14:41:30;7.80;;;4.05;;
11604;SDS011;5858;43.076;25.626;2023-09-08T14:43:56;5.97;;;3.72;;
11604;SDS011;5858;43.076;25.626;2023-09-08T14:46:25;7.75;;;3.78;;
11604;SDS011;5858;43.076;25.626;2023-09-08T14:48:52;11.55;;;3.97;;
11604;SDS011;5858;43.076;25.626;2023-09-08T14:51:20;7.50;;;3.65;;
11604;SDS011;5858;43.076;25.626;2023-09-08T14:53:47;4.72;;;3.53;;
11604;SDS011;5858;43.076;25.626;2023-09-08T14:56:14;6.22;;;3.20;;
11604;SDS011;5858;43.076;25.626;2023-09-08T14:58:41;6.45;;;3.50;;
11604;SDS011;5858;43.076;25.626;2023-09-08T15:01:08;6.88;;;3.50;;
11604;SDS011;5858;43.076;25.626;2023-09-08T15:03:39;6.28;;;3.40;;
11604;SDS011;5858;43.076;25.626;2023-09-08T15:06:08;4.22;;;3.08;;
11604;SDS011;5858;43.076;25.626;2023-09-08T15:08:35;5.93;;;3.58;;
11604;SDS011;5858;43.076;25.626;2023-09-08T15:11:02;4.97;;;3.40;;
11604;SDS011;5858;43.076;25.626;2023-09-08T15:13:29;4.60;;;3.60;;
11604;SDS011;5858;43.076;25.626;2023-09-08T15:15:57;7.70;;;3.40;;
11604;SDS011;5858;43.076;25.626;2023-09-08T15:18:26;8.00;;;3.63;;
11604;SDS011;5858;43.076;25.626;2023-09-08T15:20:54;9.63;;;3.78;;
11604;SDS011;5858;43.076;25.626;2023-09-08T15:23:22;6.47;;;4.00;;
11604;SDS011;5858;43.076;25.626;2023-09-08T15:25:51;6.45;;;3.47;;
11604;SDS011;5858;43.076;25.626;2023-09-08T15:28:21;6.90;;;3.67;;
11604;SDS011;5858;43.076;25.626;2023-09-08T15:30:49;5.80;;;3.50;;
11604;SDS011;5858;43.076;25.626;2023-09-08T15:33:20;10.13;;;3.95;;
11604;SDS011;5858;43.076;25.626;2023-09-08T15:46:09;7.05;;;3.30;;
11604;SDS011;5858;43.076;25.626;2023-09-08T15:49:03;4.90;;;3.25;;
11604;SDS011;5858;43.076;25.626;2023-09-08T15:51:57;6.43;;;3.20;;
11604;SDS011;5858;43.076;25.626;2023-09-08T15:54:25;8.32;;;3.35;;
11604;SDS011;5858;43.076;25.626;2023-09-08T15:56:53;5.35;;;3.47;;
11604;SDS011;5858;43.076;25.626;2023-09-08T15:59:22;5.55;;;3.88;;
11604;SDS011;5858;43.076;25.626;2023-09-08T16:02:09;6.22;;;3.90;;
11604;SDS011;5858;43.076;25.626;2023-09-08T16:08:09;8.98;;;5.10;;
11604;SDS011;5858;43.076;25.626;2023-09-08T16:11:49;9.10;;;5.68;;
11604;SDS011;5858;43.076;25.626;2023-09-08T16:21:35;12.85;;;5.80;;
11604;SDS011;5858;43.076;25.626;2023-09-08T16:24:09;10.75;;;5.15;;
11604;SDS011;5858;43.076;25.626;2023-09-08T16:26:42;6.40;;;5.28;;
11604;SDS011;5858;43.076;25.626;2023-09-08T16:29:17;7.93;;;5.40;;
11604;SDS011;5858;43.076;25.626;2023-09-08T16:32:28;10.85;;;5.40;;
11604;SDS011;5858;43.076;25.626;2023-09-08T16:35:10;7.20;;;5.53;;
11604;SDS011;5858;43.076;25.626;2023-09-08T16:38:03;7.43;;;5.03;;
11604;SDS011;5858;43.076;25.626;2023-09-08T16:40:39;9.20;;;5.22;;
11604;SDS011;5858;43.076;25.626;2023-09-08T16:43:17;9.77;;;4.82;;